createdAt,value
2018-07-17T00:01:45.810Z,99.90
2018-07-17T00:04:17.419Z,99.90
2018-07-17T00:06:47.914Z,99.90
2018-07-17T00:09:18.086Z,99.90
2018-07-17T00:11:48.515Z,99.90
2018-07-17T00:14:19.803Z,99.90
2018-07-17T00:16:50.243Z,99.90
2018-07-17T00:19:20.770Z,99.90
2018-07-17T00:21:50.950Z,99.90
2018-07-17T00:24:21.202Z,99.90
2018-07-17T00:26:51.509Z,99.90
2018-07-17T00:29:21.660Z,99.90
2018-07-17T00:31:52.630Z,99.90
2018-07-17T00:34:22.900Z,99.90
2018-07-17T00:36:53.338Z,99.90
2018-07-17T00:39:23.653Z,99.90
2018-07-17T00:41:53.963Z,99.90
2018-07-17T00:44:24.220Z,99.90
2018-07-17T00:46:54.581Z,99.90
2018-07-17T00:49:24.783Z,99.90
2018-07-17T00:51:55.020Z,99.90
2018-07-17T00:56:54.670Z,99.90
2018-07-17T00:59:24.917Z,99.90
2018-07-17T01:02:00.057Z,99.90
2018-07-17T01:04:35.228Z,99.90
2018-07-17T01:07:11.843Z,99.90
2018-07-17T01:09:47.335Z,99.90
2018-07-17T01:12:16.538Z,99.90
2018-07-17T01:14:58.387Z,99.90
2018-07-17T01:17:29.230Z,99.90
2018-07-17T01:19:59.548Z,99.90
2018-07-17T01:22:29.740Z,99.90
2018-07-17T01:25:00.023Z,99.90
2018-07-17T01:27:30.190Z,99.90
2018-07-17T01:30:00.410Z,99.90
2018-07-17T01:32:30.572Z,99.90
2018-07-17T01:35:00.610Z,99.90
2018-07-17T01:37:30.924Z,99.90
2018-07-17T01:40:01.124Z,99.90
2018-07-17T01:42:31.125Z,99.90
2018-07-17T01:45:02.110Z,99.90
2018-07-17T01:47:32.331Z,99.90
2018-07-17T01:50:02.317Z,99.90
2018-07-17T01:52:32.444Z,99.90
2018-07-17T01:55:02.787Z,99.90
2018-07-17T01:57:33.107Z,99.90
2018-07-17T02:00:03.523Z,99.90
2018-07-17T02:02:33.573Z,99.90
2018-07-17T02:05:03.778Z,99.90
2018-07-17T02:07:34.024Z,99.90
2018-07-17T02:12:33.876Z,99.90
2018-07-17T02:15:04.424Z,99.90
2018-07-17T02:17:34.581Z,99.90
2018-07-17T02:20:05.385Z,99.90
2018-07-17T02:22:35.758Z,99.90
2018-07-17T02:25:06.269Z,99.90
2018-07-17T02:27:36.685Z,99.90
2018-07-17T02:30:06.794Z,99.90
2018-07-17T02:32:36.998Z,99.90
2018-07-17T02:35:07.712Z,99.90
2018-07-17T02:37:37.981Z,99.90
2018-07-17T02:40:08.209Z,99.90
2018-07-17T02:42:38.475Z,99.90
2018-07-17T02:47:38.079Z,99.90
2018-07-17T02:50:08.425Z,99.90
2018-07-17T02:52:39.059Z,99.90
2018-07-17T02:55:09.473Z,99.90
2018-07-17T02:57:39.954Z,99.90
2018-07-17T03:00:11.433Z,99.90
2018-07-17T03:02:41.741Z,99.90
2018-07-17T03:05:11.965Z,99.90
2018-07-17T03:07:42.274Z,99.90
2018-07-17T03:10:13.119Z,99.90
2018-07-17T03:12:43.239Z,99.90
2018-07-17T03:15:13.336Z,99.90
2018-07-17T03:17:43.724Z,99.90
2018-07-17T03:20:13.923Z,99.90
2018-07-17T03:22:44.063Z,99.90
2018-07-17T03:25:14.858Z,99.90
2018-07-17T03:27:45.357Z,99.90
2018-07-17T03:30:15.662Z,99.90
2018-07-17T03:32:45.862Z,99.90
2018-07-17T03:35:16.005Z,99.90
2018-07-17T03:40:15.878Z,99.90
2018-07-17T03:42:46.070Z,99.90
2018-07-17T03:45:16.449Z,99.90
2018-07-17T03:47:46.704Z,99.90
2018-07-17T03:50:16.939Z,99.90
2018-07-17T03:52:47.098Z,99.90
2018-07-17T03:55:17.421Z,99.90
2018-07-17T04:00:17.872Z,99.90
2018-07-17T04:02:48.125Z,99.90
2018-07-17T04:05:18.436Z,99.90
2018-07-17T04:07:49.188Z,99.90
2018-07-17T04:10:19.573Z,99.90
2018-07-17T04:12:50.109Z,99.90
2018-07-17T04:15:20.149Z,99.90
2018-07-17T04:17:50.532Z,99.90
2018-07-17T04:20:20.926Z,99.90
2018-07-17T04:22:51.066Z,99.90
2018-07-17T04:25:21.682Z,99.90
2018-07-17T04:27:52.548Z,99.90
2018-07-17T04:30:22.813Z,99.90
2018-07-17T04:35:23.318Z,99.90
2018-07-17T04:37:53.879Z,99.90
2018-07-17T04:40:24.284Z,99.90
2018-07-17T04:42:54.669Z,99.90
2018-07-17T04:45:24.893Z,99.90
2018-07-17T04:47:55.162Z,99.90
2018-07-17T04:50:25.566Z,99.90
2018-07-17T04:52:55.649Z,99.90
2018-07-17T04:55:25.835Z,99.90
2018-07-17T04:57:56.227Z,99.90
2018-07-17T05:00:26.431Z,99.90
2018-07-17T05:02:56.696Z,99.90
2018-07-17T05:05:26.926Z,99.90
2018-07-17T05:07:57.655Z,99.90
2018-07-17T05:10:28.233Z,99.90
2018-07-17T05:12:58.568Z,99.90
2018-07-17T05:15:28.844Z,99.90
2018-07-17T05:17:59.116Z,99.90
2018-07-17T05:20:29.092Z,99.90
2018-07-17T05:22:59.521Z,99.90
2018-07-17T05:27:59.174Z,99.90
2018-07-17T05:30:29.359Z,99.90
2018-07-17T05:33:00.862Z,99.90
2018-07-17T05:35:31.228Z,99.90
2018-07-17T05:38:01.558Z,99.90
2018-07-17T05:40:31.955Z,99.90
2018-07-17T05:43:02.383Z,99.90
2018-07-17T05:45:32.783Z,99.90
2018-07-17T05:50:38.554Z,99.90
2018-07-17T05:53:14.145Z,99.90
2018-07-17T05:55:44.535Z,99.90
2018-07-17T05:58:15.171Z,99.90
2018-07-17T06:00:45.612Z,99.90
2018-07-17T06:03:16.389Z,99.90
2018-07-17T06:05:46.731Z,99.90
2018-07-17T06:08:17.141Z,99.90
2018-07-17T06:10:47.309Z,99.90
2018-07-17T06:13:17.285Z,99.90
2018-07-17T06:15:47.537Z,99.90
2018-07-17T06:18:18.188Z,99.90
2018-07-17T06:20:48.530Z,99.90
2018-07-17T06:23:19.209Z,99.90
2018-07-17T06:25:50.900Z,99.90
2018-07-17T06:28:21.255Z,99.90
2018-07-17T06:30:51.762Z,99.90
2018-07-17T06:33:22.505Z,99.90
2018-07-17T06:35:53.618Z,99.90
2018-07-17T06:38:23.834Z,99.90
2018-07-17T06:40:53.963Z,99.90
2018-07-17T06:43:24.304Z,99.90
2018-07-17T06:45:56.405Z,99.90
2018-07-17T06:50:56.567Z,99.90
2018-07-17T06:53:27.148Z,99.90
2018-07-17T06:55:58.494Z,99.90
2018-07-17T06:58:29.000Z,99.90
2018-07-17T07:00:59.109Z,99.90
2018-07-17T07:03:29.132Z,99.90
2018-07-17T07:05:59.324Z,99.90
2018-07-17T07:08:29.682Z,99.90
2018-07-17T07:11:00.366Z,99.90
2018-07-17T07:13:31.298Z,99.90
2018-07-17T07:16:01.795Z,99.90
2018-07-17T07:18:32.317Z,99.90
2018-07-17T07:21:02.445Z,99.90
2018-07-17T07:23:32.753Z,99.90
2018-07-17T07:26:03.176Z,99.90
2018-07-17T07:28:34.086Z,99.90
2018-07-17T07:31:05.232Z,99.90
2018-07-17T07:33:35.986Z,99.90
2018-07-17T07:36:07.415Z,99.90
2018-07-17T07:38:37.532Z,99.90
2018-07-17T07:41:07.949Z,99.90
2018-07-17T07:43:38.102Z,99.90
2018-07-17T07:46:08.226Z,99.90
2018-07-17T07:48:38.558Z,99.90
2018-07-17T07:51:08.785Z,99.90
2018-07-17T07:53:39.066Z,99.90
2018-07-17T07:56:09.368Z,99.90
2018-07-17T07:58:39.734Z,99.90
2018-07-17T08:01:10.818Z,99.90
2018-07-17T08:03:41.131Z,99.90
2018-07-17T08:06:11.657Z,99.90
2018-07-17T08:08:42.463Z,99.90
2018-07-17T08:11:12.724Z,99.90
2018-07-17T08:13:43.290Z,99.90
2018-07-17T08:16:14.312Z,99.90
2018-07-17T08:18:44.918Z,99.90
2018-07-17T08:21:16.071Z,99.90
2018-07-17T08:23:47.495Z,99.90
2018-07-17T08:26:17.740Z,99.90
2018-07-17T08:28:48.489Z,99.90
2018-07-17T08:31:18.900Z,99.90
2018-07-17T08:36:19.327Z,99.90
2018-07-17T08:38:50.417Z,99.90
2018-07-17T08:41:21.121Z,99.90
2018-07-17T08:43:51.444Z,99.90
2018-07-17T08:48:51.478Z,99.90
2018-07-17T08:51:21.768Z,99.90
2018-07-17T08:53:52.054Z,99.90
2018-07-17T08:56:22.093Z,99.90
2018-07-17T08:58:52.782Z,99.90
2018-07-17T09:03:52.735Z,99.90
2018-07-17T09:06:23.093Z,99.90
2018-07-17T09:08:53.632Z,99.90
2018-07-17T09:11:24.189Z,99.90
2018-07-17T09:13:55.542Z,99.90
2018-07-17T09:16:26.615Z,99.90
2018-07-17T09:18:56.895Z,99.90
2018-07-17T09:21:27.295Z,99.90
2018-07-17T09:23:57.593Z,99.90
2018-07-17T09:26:27.812Z,99.90
2018-07-17T09:28:58.108Z,99.90
2018-07-17T09:33:57.474Z,99.90
2018-07-17T09:36:27.881Z,99.90
2018-07-17T09:38:58.061Z,99.90
2018-07-17T09:41:28.401Z,99.90
2018-07-17T09:46:28.445Z,99.90
2018-07-17T09:48:58.786Z,99.90
2018-07-17T09:51:29.130Z,99.90
2018-07-17T09:54:00.077Z,99.90
2018-07-17T09:56:30.406Z,99.90
2018-07-17T09:59:00.593Z,99.90
2018-07-17T10:01:35.927Z,99.90
2018-07-17T10:04:06.343Z,99.90
2018-07-17T10:06:36.527Z,99.90
2018-07-17T10:09:08.249Z,99.90
2018-07-17T10:14:15.844Z,99.90
2018-07-17T10:16:46.595Z,99.90
2018-07-17T10:19:16.907Z,99.90
2018-07-17T10:21:46.857Z,99.90
2018-07-17T10:24:17.625Z,99.90
2018-07-17T10:26:47.707Z,99.90
2018-07-17T10:29:17.863Z,99.90
2018-07-17T10:31:48.146Z,99.90
2018-07-17T10:39:17.474Z,99.80
2018-07-17T10:41:47.976Z,99.90
2018-07-17T10:44:18.207Z,99.90
2018-07-17T10:46:48.775Z,99.90
2018-07-17T10:51:48.485Z,99.90
2018-07-17T10:54:19.500Z,98.60
2018-07-17T10:56:50.054Z,98.40
2018-07-17T10:59:20.622Z,98.70
2018-07-17T11:01:51.532Z,98.10
2018-07-17T11:04:22.891Z,98.00
2018-07-17T11:09:23.000Z,99.30
2018-07-17T11:11:53.354Z,99.30
2018-07-17T11:14:23.579Z,98.80
2018-07-17T11:16:54.083Z,99.00
2018-07-17T11:19:24.125Z,98.20
2018-07-17T11:21:54.631Z,98.90
2018-07-17T11:24:25.611Z,99.20
2018-07-17T11:26:55.944Z,99.60
2018-07-17T11:29:26.115Z,99.60
2018-07-17T11:31:57.626Z,99.60
2018-07-17T11:34:27.792Z,99.90
2018-07-17T11:36:57.953Z,99.90
2018-07-17T11:39:28.839Z,99.90
2018-07-17T11:41:59.612Z,99.90
2018-07-17T11:44:30.547Z,99.90
2018-07-17T11:47:00.636Z,99.90
2018-07-17T11:49:30.781Z,99.90
2018-07-17T11:52:02.276Z,99.90
2018-07-17T11:54:33.243Z,99.90
2018-07-17T11:57:03.595Z,99.90
2018-07-17T11:59:34.048Z,99.90
2018-07-17T12:02:04.925Z,99.90
2018-07-17T12:04:35.371Z,99.90
2018-07-17T12:07:05.678Z,99.90
2018-07-17T12:09:35.964Z,99.90
2018-07-17T12:12:06.385Z,99.90
2018-07-17T12:14:36.937Z,99.90
2018-07-17T12:17:07.053Z,99.90
2018-07-17T12:19:37.051Z,99.90
2018-07-17T12:22:07.444Z,99.90
2018-07-17T12:24:38.020Z,99.90
2018-07-17T12:27:08.399Z,99.90
2018-07-17T12:29:38.633Z,99.90
2018-07-17T12:32:08.942Z,99.90
2018-07-17T12:34:39.381Z,99.90
2018-07-17T12:37:09.941Z,99.90
2018-07-17T12:39:40.624Z,99.90
2018-07-17T12:44:40.712Z,99.90
2018-07-17T12:47:11.474Z,99.90
2018-07-17T12:49:42.451Z,99.90
2018-07-17T12:52:12.722Z,99.90
2018-07-17T12:54:43.331Z,99.90
2018-07-17T12:57:13.648Z,99.90
2018-07-17T12:59:43.990Z,99.90
2018-07-17T13:02:15.162Z,99.90
2018-07-17T13:04:45.467Z,99.90
2018-07-17T13:07:15.779Z,99.90
2018-07-17T13:09:47.035Z,99.90
2018-07-17T13:12:17.387Z,99.90
2018-07-17T13:14:48.449Z,99.90
2018-07-17T13:19:48.571Z,99.90
2018-07-17T13:22:19.178Z,99.90
2018-07-17T13:24:49.385Z,99.90
2018-07-17T13:27:19.550Z,99.90
2018-07-17T13:29:49.959Z,99.90
2018-07-17T13:32:20.155Z,99.90
2018-07-17T13:34:50.829Z,99.90
2018-07-17T13:37:20.991Z,99.90
2018-07-17T13:39:51.199Z,99.90
2018-07-17T13:42:22.853Z,99.90
2018-07-17T13:44:53.572Z,99.90
2018-07-17T13:47:23.755Z,99.90
2018-07-17T13:49:55.417Z,99.90
2018-07-17T13:52:26.220Z,99.90
2018-07-17T13:54:56.932Z,99.90
2018-07-17T13:57:27.086Z,99.90
2018-07-17T13:59:57.419Z,99.90
2018-07-17T14:02:28.773Z,99.90
2018-07-17T14:04:59.348Z,99.90
2018-07-17T14:07:29.944Z,99.90
2018-07-17T14:12:30.133Z,99.90
2018-07-17T14:15:00.409Z,99.90
2018-07-17T14:17:30.926Z,99.90
2018-07-17T14:20:01.281Z,99.20
2018-07-17T14:22:31.473Z,99.50
2018-07-17T14:25:02.590Z,99.20
2018-07-17T14:27:33.052Z,99.90
2018-07-17T14:30:03.129Z,99.90
2018-07-17T14:32:33.668Z,99.90
2018-07-17T14:35:03.667Z,99.60
2018-07-17T14:37:34.336Z,99.20
2018-07-17T14:40:05.868Z,99.40
2018-07-17T14:42:36.554Z,98.80
2018-07-17T14:47:36.672Z,99.00
2018-07-17T14:50:06.918Z,99.60
2018-07-17T14:55:07.999Z,99.90
2018-07-17T14:57:38.578Z,99.90
2018-07-17T15:00:10.031Z,99.80
2018-07-17T15:02:40.853Z,99.90
2018-07-17T15:05:11.575Z,99.90
2018-07-17T15:07:42.440Z,99.90
2018-07-17T15:10:13.698Z,99.90
2018-07-17T15:12:44.244Z,99.90
2018-07-17T15:15:15.702Z,99.90
2018-07-17T15:17:45.780Z,99.90
2018-07-17T15:20:16.745Z,99.90
2018-07-17T15:22:47.370Z,99.90
2018-07-17T15:25:18.401Z,99.90
2018-07-17T15:27:48.761Z,99.90
2018-07-17T15:30:19.804Z,99.90
2018-07-17T15:32:49.973Z,99.90
2018-07-17T15:35:20.268Z,99.90
2018-07-17T15:37:50.469Z,99.90
2018-07-17T15:40:20.870Z,99.90
2018-07-17T15:45:21.649Z,99.90
2018-07-17T15:47:52.658Z,99.90
2018-07-17T15:50:22.832Z,99.90
2018-07-17T15:52:54.345Z,99.90
2018-07-17T15:55:24.860Z,99.90
2018-07-17T15:57:55.372Z,99.90
2018-07-17T16:00:28.153Z,99.90
2018-07-17T16:02:59.198Z,99.90
2018-07-17T16:08:02.332Z,99.90
2018-07-17T16:10:32.616Z,99.90
2018-07-17T16:13:02.807Z,99.90
2018-07-17T16:15:33.129Z,99.90
2018-07-17T16:18:03.337Z,99.90
2018-07-17T16:20:34.071Z,99.90
2018-07-17T16:23:04.366Z,99.90
2018-07-17T16:25:34.734Z,99.90
2018-07-17T16:28:05.723Z,99.90
2018-07-17T16:30:36.286Z,99.80
2018-07-17T16:33:08.355Z,99.90
2018-07-17T16:35:38.683Z,99.90
2018-07-17T16:38:10.605Z,99.90
2018-07-17T16:40:45.087Z,99.90
2018-07-17T16:43:19.137Z,99.90
2018-07-17T16:45:53.144Z,99.90
2018-07-17T16:48:24.119Z,99.90
2018-07-17T17:34:41.337Z,99.90
2018-07-17T17:37:12.477Z,99.90
2018-07-17T17:39:45.333Z,99.90
2018-07-17T17:42:17.593Z,99.90
2018-07-17T17:44:48.915Z,99.90
2018-07-17T17:47:21.080Z,99.90
2018-07-17T17:49:52.717Z,99.90
2018-07-17T17:52:22.925Z,99.90
2018-07-17T17:54:54.289Z,99.90
